sensor_id;sensor_type;location;lat;lon;timestamp;temperature;humidity
40123;DHT22;25832;45.490;4.912;2023-05-07T00:02:21;15.90;99.90
40123;DHT22;25832;45.490;4.912;2023-05-07T00:04:48;15.90;99.90
40123;DHT22;25832;45.490;4.912;2023-05-07T00:07:14;15.90;99.90
40123;DHT22;25832;45.490;4.912;2023-05-07T00:09:40;15.90;99.90
40123;DHT22;25832;45.490;4.912;2023-05-07T00:12:06;15.80;99.90
40123;DHT22;25832;45.490;4.912;2023-05-07T00:14:32;15.80;99.90
40123;DHT22;25832;45.490;4.912;2023-05-07T00:16:58;15.80;99.90
40123;DHT22;25832;45.490;4.912;2023-05-07T00:19:23;15.80;99.90
40123;DHT22;25832;45.490;4.912;2023-05-07T00:21:49;15.80;99.90
40123;DHT22;25832;45.490;4.912;2023-05-07T00:24:15;15.80;99.90
40123;DHT22;25832;45.490;4.912;2023-05-07T00:26:40;15.80;99.90
40123;DHT22;25832;45.490;4.912;2023-05-07T00:29:06;15.80;99.90
40123;DHT22;25832;45.490;4.912;2023-05-07T00:31:32;15.70;99.90
40123;DHT22;25832;45.490;4.912;2023-05-07T00:33:57;15.70;99.90
40123;DHT22;25832;45.490;4.912;2023-05-07T00:36:23;15.70;99.90
40123;DHT22;25832;45.490;4.912;2023-05-07T00:38:49;15.70;99.90
40123;DHT22;25832;45.490;4.912;2023-05-07T00:41:15;15.70;99.90
40123;DHT22;25832;45.490;4.912;2023-05-07T00:43:40;15.70;99.90
40123;DHT22;25832;45.490;4.912;2023-05-07T00:46:06;15.70;99.90
40123;DHT22;25832;45.490;4.912;2023-05-07T00:48:32;15.70;99.90
40123;DHT22;25832;45.490;4.912;2023-05-07T00:50:57;15.70;99.90
40123;DHT22;25832;45.490;4.912;2023-05-07T00:53:23;15.70;99.90
40123;DHT22;25832;45.490;4.912;2023-05-07T00:55:49;15.60;99.90
40123;DHT22;25832;45.490;4.912;2023-05-07T00:58:16;15.60;99.90
40123;DHT22;25832;45.490;4.912;2023-05-07T01:00:41;15.50;99.90
40123;DHT22;25832;45.490;4.912;2023-05-07T01:03:07;15.60;99.90
40123;DHT22;25832;45.490;4.912;2023-05-07T01:05:33;15.50;99.90
40123;DHT22;25832;45.490;4.912;2023-05-07T01:07:59;15.50;99.90
40123;DHT22;25832;45.490;4.912;2023-05-07T01:10:26;15.50;99.90
40123;DHT22;25832;45.490;4.912;2023-05-07T01:12:52;15.40;99.90
40123;DHT22;25832;45.490;4.912;2023-05-07T01:15:19;15.30;99.90
40123;DHT22;25832;45.490;4.912;2023-05-07T01:17:45;15.20;99.90
40123;DHT22;25832;45.490;4.912;2023-05-07T01:20:11;15.00;99.90
40123;DHT22;25832;45.490;4.912;2023-05-07T01:22:37;14.90;99.90
40123;DHT22;25832;45.490;4.912;2023-05-07T01:25:04;14.70;99.90
40123;DHT22;25832;45.490;4.912;2023-05-07T01:27:30;14.60;99.90
40123;DHT22;25832;45.490;4.912;2023-05-07T01:29:56;14.60;99.90
40123;DHT22;25832;45.490;4.912;2023-05-07T01:32:32;14.60;99.90
40123;DHT22;25832;45.490;4.912;2023-05-07T01:35:00;14.50;99.90
40123;DHT22;25832;45.490;4.912;2023-05-07T01:37:26;14.50;99.90
40123;DHT22;25832;45.490;4.912;2023-05-07T01:39:53;14.50;99.90
40123;DHT22;25832;45.490;4.912;2023-05-07T01:42:19;14.50;99.90
40123;DHT22;25832;45.490;4.912;2023-05-07T01:44:45;14.40;99.90
40123;DHT22;25832;45.490;4.912;2023-05-07T01:47:12;14.20;99.90
40123;DHT22;25832;45.490;4.912;2023-05-07T01:49:39;14.00;99.90
40123;DHT22;25832;45.490;4.912;2023-05-07T01:52:05;13.90;99.90
40123;DHT22;25832;45.490;4.912;2023-05-07T01:54:31;13.80;99.90
40123;DHT22;25832;45.490;4.912;2023-05-07T01:56:57;13.80;99.90
40123;DHT22;25832;45.490;4.912;2023-05-07T01:59:23;13.80;99.90
40123;DHT22;25832;45.490;4.912;2023-05-07T02:01:48;13.80;99.90
40123;DHT22;25832;45.490;4.912;2023-05-07T02:04:14;13.80;99.90
40123;DHT22;25832;45.490;4.912;2023-05-07T02:06:40;13.80;99.90
40123;DHT22;25832;45.490;4.912;2023-05-07T02:09:05;13.80;99.90
40123;DHT22;25832;45.490;4.912;2023-05-07T02:11:31;13.80;99.90
40123;DHT22;25832;45.490;4.912;2023-05-07T02:13:57;13.80;99.90
40123;DHT22;25832;45.490;4.912;2023-05-07T02:16:22;13.70;99.90
40123;DHT22;25832;45.490;4.912;2023-05-07T02:18:49;13.60;99.90
40123;DHT22;25832;45.490;4.912;2023-05-07T02:21:15;13.60;99.90
40123;DHT22;25832;45.490;4.912;2023-05-07T02:23:40;13.50;99.90
40123;DHT22;25832;45.490;4.912;2023-05-07T02:26:06;13.50;99.90
40123;DHT22;25832;45.490;4.912;2023-05-07T02:28:32;13.60;99.90
40123;DHT22;25832;45.490;4.912;2023-05-07T02:30:58;13.60;99.90
40123;DHT22;25832;45.490;4.912;2023-05-07T02:33:25;13.60;99.90
40123;DHT22;25832;45.490;4.912;2023-05-07T02:35:51;13.60;99.90
40123;DHT22;25832;45.490;4.912;2023-05-07T02:38:17;13.60;99.90
40123;DHT22;25832;45.490;4.912;2023-05-07T02:40:43;13.60;99.90
40123;DHT22;25832;45.490;4.912;2023-05-07T02:43:09;13.60;99.90
40123;DHT22;25832;45.490;4.912;2023-05-07T02:45:35;13.50;99.90
40123;DHT22;25832;45.490;4.912;2023-05-07T02:48:01;13.50;99.90
40123;DHT22;25832;45.490;4.912;2023-05-07T02:50:27;13.40;99.90
40123;DHT22;25832;45.490;4.912;2023-05-07T02:52:52;13.40;99.90
40123;DHT22;25832;45.490;4.912;2023-05-07T02:55:18;13.30;99.90
40123;DHT22;25832;45.490;4.912;2023-05-07T02:57:44;13.30;99.90
40123;DHT22;25832;45.490;4.912;2023-05-07T03:00:17;13.30;99.90
40123;DHT22;25832;45.490;4.912;2023-05-07T03:02:44;13.40;99.90
40123;DHT22;25832;45.490;4.912;2023-05-07T03:05:10;13.40;99.90
40123;DHT22;25832;45.490;4.912;2023-05-07T03:07:37;13.40;99.90
40123;DHT22;25832;45.490;4.912;2023-05-07T03:10:03;13.50;99.90
40123;DHT22;25832;45.490;4.912;2023-05-07T03:12:29;13.70;99.90
40123;DHT22;25832;45.490;4.912;2023-05-07T03:14:55;13.70;99.90
40123;DHT22;25832;45.490;4.912;2023-05-07T03:17:21;13.90;99.90
40123;DHT22;25832;45.490;4.912;2023-05-07T03:19:47;14.00;99.90
40123;DHT22;25832;45.490;4.912;2023-05-07T03:22:12;14.00;99.90
40123;DHT22;25832;45.490;4.912;2023-05-07T03:24:38;14.00;99.90
40123;DHT22;25832;45.490;4.912;2023-05-07T03:27:04;14.00;99.90
40123;DHT22;25832;45.490;4.912;2023-05-07T03:29:29;14.00;99.90
40123;DHT22;25832;45.490;4.912;2023-05-07T03:31:55;14.00;99.90
40123;DHT22;25832;45.490;4.912;2023-05-07T03:34:21;14.00;99.90
40123;DHT22;25832;45.490;4.912;2023-05-07T03:36:50;14.00;99.90
40123;DHT22;25832;45.490;4.912;2023-05-07T03:39:16;14.10;99.90
40123;DHT22;25832;45.490;4.912;2023-05-07T03:41:41;14.10;99.90
40123;DHT22;25832;45.490;4.912;2023-05-07T03:44:07;14.10;99.90
40123;DHT22;25832;45.490;4.912;2023-05-07T03:46:33;14.10;99.90
40123;DHT22;25832;45.490;4.912;2023-05-07T03:48:59;14.10;99.90
40123;DHT22;25832;45.490;4.912;2023-05-07T03:51:25;14.20;99.90
40123;DHT22;25832;45.490;4.912;2023-05-07T03:53:52;14.30;99.90
40123;DHT22;25832;45.490;4.912;2023-05-07T03:56:22;14.40;99.90
40123;DHT22;25832;45.490;4.912;2023-05-07T03:58:48;14.40;99.90
40123;DHT22;25832;45.490;4.912;2023-05-07T04:01:14;14.40;99.90
40123;DHT22;25832;45.490;4.912;2023-05-07T04:03:40;14.30;99.90
40123;DHT22;25832;45.490;4.912;2023-05-07T04:06:05;14.30;99.90
40123;DHT22;25832;45.490;4.912;2023-05-07T04:08:31;14.30;99.90
40123;DHT22;25832;45.490;4.912;2023-05-07T04:10:57;14.30;99.90
40123;DHT22;25832;45.490;4.912;2023-05-07T04:13:23;14.30;99.90
40123;DHT22;25832;45.490;4.912;2023-05-07T04:15:50;14.30;99.90
40123;DHT22;25832;45.490;4.912;2023-05-07T04:18:16;14.40;99.90
40123;DHT22;25832;45.490;4.912;2023-05-07T04:20:41;14.40;99.90
40123;DHT22;25832;45.490;4.912;2023-05-07T04:23:07;14.50;99.90
40123;DHT22;25832;45.490;4.912;2023-05-07T04:25:33;14.50;99.90
40123;DHT22;25832;45.490;4.912;2023-05-07T04:27:59;14.50;99.90
40123;DHT22;25832;45.490;4.912;2023-05-07T04:30:25;14.60;99.90
40123;DHT22;25832;45.490;4.912;2023-05-07T04:32:51;14.60;99.90
40123;DHT22;25832;45.490;4.912;2023-05-07T04:35:17;14.60;99.90
40123;DHT22;25832;45.490;4.912;2023-05-07T04:37:43;14.60;99.90
40123;DHT22;25832;45.490;4.912;2023-05-07T04:40:08;14.70;99.90
40123;DHT22;25832;45.490;4.912;2023-05-07T04:42:34;14.70;99.90
40123;DHT22;25832;45.490;4.912;2023-05-07T04:45:01;14.80;99.90
40123;DHT22;25832;45.490;4.912;2023-05-07T04:47:27;14.80;99.90
40123;DHT22;25832;45.490;4.912;2023-05-07T04:49:53;14.90;99.90
40123;DHT22;25832;45.490;4.912;2023-05-07T04:52:18;14.90;99.90
40123;DHT22;25832;45.490;4.912;2023-05-07T04:54:44;14.70;99.90
40123;DHT22;25832;45.490;4.912;2023-05-07T04:57:10;14.60;99.90
40123;DHT22;25832;45.490;4.912;2023-05-07T04:59:35;14.50;99.90
40123;DHT22;25832;45.490;4.912;2023-05-07T05:02:01;14.40;99.90
40123;DHT22;25832;45.490;4.912;2023-05-07T05:04:29;14.40;99.90
40123;DHT22;25832;45.490;4.912;2023-05-07T05:06:55;14.30;99.90
40123;DHT22;25832;45.490;4.912;2023-05-07T05:09:21;14.30;99.90
40123;DHT22;25832;45.490;4.912;2023-05-07T05:11:47;14.20;99.90
40123;DHT22;25832;45.490;4.912;2023-05-07T05:14:12;14.10;99.90
40123;DHT22;25832;45.490;4.912;2023-05-07T05:16:38;14.10;99.90
40123;DHT22;25832;45.490;4.912;2023-05-07T05:19:04;14.00;99.90
40123;DHT22;25832;45.490;4.912;2023-05-07T05:21:30;14.00;99.90
40123;DHT22;25832;45.490;4.912;2023-05-07T05:23:56;14.00;99.90
40123;DHT22;25832;45.490;4.912;2023-05-07T05:26:22;13.90;99.90
40123;DHT22;25832;45.490;4.912;2023-05-07T05:28:47;13.90;99.90
40123;DHT22;25832;45.490;4.912;2023-05-07T05:31:13;14.00;99.90
40123;DHT22;25832;45.490;4.912;2023-05-07T05:33:39;13.90;99.90
40123;DHT22;25832;45.490;4.912;2023-05-07T05:36:06;14.00;99.90
40123;DHT22;25832;45.490;4.912;2023-05-07T05:38:31;14.00;99.90
40123;DHT22;25832;45.490;4.912;2023-05-07T05:40:57;14.00;99.90
40123;DHT22;25832;45.490;4.912;2023-05-07T05:43:23;14.10;99.90
40123;DHT22;25832;45.490;4.912;2023-05-07T05:45:49;14.10;99.90
40123;DHT22;25832;45.490;4.912;2023-05-07T05:48:14;14.10;99.90
40123;DHT22;25832;45.490;4.912;2023-05-07T05:50:42;14.10;99.90
40123;DHT22;25832;45.490;4.912;2023-05-07T05:53:07;14.20;99.90
40123;DHT22;25832;45.490;4.912;2023-05-07T05:55:34;14.30;99.90
40123;DHT22;25832;45.490;4.912;2023-05-07T05:58:00;14.40;99.90
40123;DHT22;25832;45.490;4.912;2023-05-07T06:00:27;14.50;99.90
40123;DHT22;25832;45.490;4.912;2023-05-07T06:02:53;14.50;99.90
40123;DHT22;25832;45.490;4.912;2023-05-07T06:05:18;14.60;99.90
40123;DHT22;25832;45.490;4.912;2023-05-07T06:07:44;14.70;99.90
40123;DHT22;25832;45.490;4.912;2023-05-07T06:10:10;14.80;99.90
40123;DHT22;25832;45.490;4.912;2023-05-07T06:12:35;14.90;99.90
40123;DHT22;25832;45.490;4.912;2023-05-07T06:15:01;15.00;99.90
40123;DHT22;25832;45.490;4.912;2023-05-07T06:17:27;15.10;99.90
40123;DHT22;25832;45.490;4.912;2023-05-07T06:19:53;15.20;99.90
40123;DHT22;25832;45.490;4.912;2023-05-07T06:22:18;15.30;99.90
40123;DHT22;25832;45.490;4.912;2023-05-07T06:24:44;15.50;99.90
40123;DHT22;25832;45.490;4.912;2023-05-07T06:27:10;15.50;99.90
40123;DHT22;25832;45.490;4.912;2023-05-07T06:29:35;15.70;99.90
40123;DHT22;25832;45.490;4.912;2023-05-07T06:32:11;15.70;99.90
40123;DHT22;25832;45.490;4.912;2023-05-07T06:34:39;15.70;99.90
40123;DHT22;25832;45.490;4.912;2023-05-07T06:37:04;15.80;99.90
40123;DHT22;25832;45.490;4.912;2023-05-07T06:39:30;15.80;99.90
40123;DHT22;25832;45.490;4.912;2023-05-07T06:41:56;15.90;99.90
40123;DHT22;25832;45.490;4.912;2023-05-07T06:44:22;15.90;99.90
40123;DHT22;25832;45.490;4.912;2023-05-07T06:46:48;16.00;99.90
40123;DHT22;25832;45.490;4.912;2023-05-07T06:49:14;16.00;99.90
40123;DHT22;25832;45.490;4.912;2023-05-07T06:51:40;16.10;99.90
40123;DHT22;25832;45.490;4.912;2023-05-07T06:54:05;16.20;99.90
40123;DHT22;25832;45.490;4.912;2023-05-07T06:56:32;16.20;99.90
40123;DHT22;25832;45.490;4.912;2023-05-07T06:58:57;16.30;99.90
40123;DHT22;25832;45.490;4.912;2023-05-07T07:01:23;16.40;99.90
40123;DHT22;25832;45.490;4.912;2023-05-07T07:03:49;16.50;99.90
40123;DHT22;25832;45.490;4.912;2023-05-07T07:06:14;16.60;99.90
40123;DHT22;25832;45.490;4.912;2023-05-07T07:08:40;16.60;99.90
40123;DHT22;25832;45.490;4.912;2023-05-07T07:11:06;16.60;99.90
40123;DHT22;25832;45.490;4.912;2023-05-07T07:13:31;16.70;99.90
40123;DHT22;25832;45.490;4.912;2023-05-07T07:15:57;16.70;99.90
40123;DHT22;25832;45.490;4.912;2023-05-07T07:18:23;16.60;99.90
40123;DHT22;25832;45.490;4.912;2023-05-07T07:20:49;16.60;99.90
40123;DHT22;25832;45.490;4.912;2023-05-07T07:23:14;16.60;99.90
40123;DHT22;25832;45.490;4.912;2023-05-07T07:25:40;16.60;99.90
40123;DHT22;25832;45.490;4.912;2023-05-07T07:28:06;16.50;99.90
40123;DHT22;25832;45.490;4.912;2023-05-07T07:30:32;16.50;99.90
40123;DHT22;25832;45.490;4.912;2023-05-07T07:32:59;16.50;99.90
40123;DHT22;25832;45.490;4.912;2023-05-07T07:35:34;16.50;99.90
40123;DHT22;25832;45.490;4.912;2023-05-07T07:38:00;16.50;99.90
40123;DHT22;25832;45.490;4.912;2023-05-07T07:40:27;16.50;99.90
40123;DHT22;25832;45.490;4.912;2023-05-07T07:42:53;16.50;99.90
40123;DHT22;25832;45.490;4.912;2023-05-07T07:45:19;16.50;99.90
40123;DHT22;25832;45.490;4.912;2023-05-07T07:47:45;16.60;99.90
40123;DHT22;25832;45.490;4.912;2023-05-07T07:50:10;16.60;99.90
40123;DHT22;25832;45.490;4.912;2023-05-07T07:52:36;16.70;99.90
40123;DHT22;25832;45.490;4.912;2023-05-07T07:55:02;16.80;99.90
40123;DHT22;25832;45.490;4.912;2023-05-07T07:57:28;16.90;99.90
40123;DHT22;25832;45.490;4.912;2023-05-07T07:59:54;16.90;99.90
40123;DHT22;25832;45.490;4.912;2023-05-07T08:02:19;17.00;99.90
40123;DHT22;25832;45.490;4.912;2023-05-07T08:04:45;17.00;99.90
40123;DHT22;25832;45.490;4.912;2023-05-07T08:07:11;17.10;99.90
40123;DHT22;25832;45.490;4.912;2023-05-07T08:09:38;17.10;99.90
40123;DHT22;25832;45.490;4.912;2023-05-07T08:12:07;17.10;99.90
40123;DHT22;25832;45.490;4.912;2023-05-07T08:14:34;17.20;99.90
40123;DHT22;25832;45.490;4.912;2023-05-07T08:17:00;17.20;99.90
40123;DHT22;25832;45.490;4.912;2023-05-07T08:19:26;17.20;99.90
40123;DHT22;25832;45.490;4.912;2023-05-07T08:21:51;17.10;99.90
40123;DHT22;25832;45.490;4.912;2023-05-07T08:24:17;17.10;99.90
40123;DHT22;25832;45.490;4.912;2023-05-07T08:26:44;17.20;99.90
40123;DHT22;25832;45.490;4.912;2023-05-07T08:29:10;17.10;99.90
40123;DHT22;25832;45.490;4.912;2023-05-07T08:31:36;17.00;99.90
40123;DHT22;25832;45.490;4.912;2023-05-07T08:34:04;16.90;99.90
40123;DHT22;25832;45.490;4.912;2023-05-07T08:36:30;16.90;99.90
40123;DHT22;25832;45.490;4.912;2023-05-07T08:38:55;16.80;99.90
40123;DHT22;25832;45.490;4.912;2023-05-07T08:41:21;16.60;99.90
40123;DHT22;25832;45.490;4.912;2023-05-07T08:43:48;16.60;99.90
40123;DHT22;25832;45.490;4.912;2023-05-07T08:46:21;16.50;99.90
40123;DHT22;25832;45.490;4.912;2023-05-07T08:48:51;16.50;99.90
40123;DHT22;25832;45.490;4.912;2023-05-07T08:51:20;16.40;99.90
40123;DHT22;25832;45.490;4.912;2023-05-07T08:53:47;16.30;99.90
40123;DHT22;25832;45.490;4.912;2023-05-07T08:56:17;16.20;99.90
40123;DHT22;25832;45.490;4.912;2023-05-07T08:58:44;16.10;99.90
40123;DHT22;25832;45.490;4.912;2023-05-07T09:01:14;16.10;99.90
40123;DHT22;25832;45.490;4.912;2023-05-07T09:03:43;16.00;99.90
40123;DHT22;25832;45.490;4.912;2023-05-07T09:06:09;16.00;99.90
40123;DHT22;25832;45.490;4.912;2023-05-07T09:08:35;15.90;99.90
40123;DHT22;25832;45.490;4.912;2023-05-07T09:11:01;15.90;99.90
40123;DHT22;25832;45.490;4.912;2023-05-07T09:13:27;15.90;99.90
40123;DHT22;25832;45.490;4.912;2023-05-07T09:15:53;15.80;99.90
40123;DHT22;25832;45.490;4.912;2023-05-07T09:18:19;15.80;99.90
40123;DHT22;25832;45.490;4.912;2023-05-07T09:20:45;15.80;99.90
40123;DHT22;25832;45.490;4.912;2023-05-07T09:23:10;15.70;99.90
40123;DHT22;25832;45.490;4.912;2023-05-07T09:25:36;15.60;99.90
40123;DHT22;25832;45.490;4.912;2023-05-07T09:28:04;15.50;99.90
40123;DHT22;25832;45.490;4.912;2023-05-07T09:30:31;15.50;99.90
40123;DHT22;25832;45.490;4.912;2023-05-07T09:32:58;15.40;99.90
40123;DHT22;25832;45.490;4.912;2023-05-07T09:35:25;15.40;99.90
40123;DHT22;25832;45.490;4.912;2023-05-07T09:37:57;15.30;99.90
40123;DHT22;25832;45.490;4.912;2023-05-07T09:40:28;15.30;99.90
40123;DHT22;25832;45.490;4.912;2023-05-07T09:42:55;15.20;99.90
40123;DHT22;25832;45.490;4.912;2023-05-07T09:45:27;15.30;99.90
40123;DHT22;25832;45.490;4.912;2023-05-07T09:47:58;15.30;99.90
40123;DHT22;25832;45.490;4.912;2023-05-07T09:50:35;15.30;99.90
40123;DHT22;25832;45.490;4.912;2023-05-07T09:53:01;15.30;99.90
40123;DHT22;25832;45.490;4.912;2023-05-07T09:55:28;15.30;99.90
40123;DHT22;25832;45.490;4.912;2023-05-07T09:57:57;15.30;99.90
40123;DHT22;25832;45.490;4.912;2023-05-07T10:00:22;15.40;99.90
40123;DHT22;25832;45.490;4.912;2023-05-07T10:02:51;15.40;99.90
40123;DHT22;25832;45.490;4.912;2023-05-07T10:05:21;15.40;99.90
40123;DHT22;25832;45.490;4.912;2023-05-07T10:07:48;15.50;99.90
40123;DHT22;25832;45.490;4.912;2023-05-07T10:10:14;15.40;99.90
40123;DHT22;25832;45.490;4.912;2023-05-07T10:12:41;15.50;99.90
40123;DHT22;25832;45.490;4.912;2023-05-07T10:15:08;15.50;99.90
40123;DHT22;25832;45.490;4.912;2023-05-07T10:17:38;15.50;99.90
40123;DHT22;25832;45.490;4.912;2023-05-07T10:20:05;15.50;99.90
40123;DHT22;25832;45.490;4.912;2023-05-07T10:22:41;15.50;99.90
40123;DHT22;25832;45.490;4.912;2023-05-07T10:25:25;15.50;99.90
40123;DHT22;25832;45.490;4.912;2023-05-07T10:27:52;15.60;99.90
40123;DHT22;25832;45.490;4.912;2023-05-07T10:30:44;15.70;99.90
40123;DHT22;25832;45.490;4.912;2023-05-07T10:33:16;15.70;99.90
40123;DHT22;25832;45.490;4.912;2023-05-07T10:35:45;15.70;99.90
40123;DHT22;25832;45.490;4.912;2023-05-07T10:38:12;15.80;99.90
40123;DHT22;25832;45.490;4.912;2023-05-07T10:40:38;15.80;99.90
40123;DHT22;25832;45.490;4.912;2023-05-07T10:43:04;15.80;99.90
40123;DHT22;25832;45.490;4.912;2023-05-07T10:45:31;15.90;99.90
40123;DHT22;25832;45.490;4.912;2023-05-07T10:48:13;15.90;99.90
40123;DHT22;25832;45.490;4.912;2023-05-07T10:50:40;16.00;99.90
40123;DHT22;25832;45.490;4.912;2023-05-07T10:58:42;16.20;99.90
40123;DHT22;25832;45.490;4.912;2023-05-07T11:01:07;16.10;99.90
40123;DHT22;25832;45.490;4.912;2023-05-07T11:03:33;16.10;99.90
40123;DHT22;25832;45.490;4.912;2023-05-07T11:06:15;16.00;99.90
40123;DHT22;25832;45.490;4.912;2023-05-07T11:08:57;16.00;99.90
40123;DHT22;25832;45.490;4.912;2023-05-07T11:11:49;15.90;99.90
40123;DHT22;25832;45.490;4.912;2023-05-07T11:17:09;15.80;99.90
40123;DHT22;25832;45.490;4.912;2023-05-07T11:19:54;15.70;99.90
40123;DHT22;25832;45.490;4.912;2023-05-07T11:25:03;15.50;99.90
40123;DHT22;25832;45.490;4.912;2023-05-07T11:27:29;15.60;99.90
40123;DHT22;25832;45.490;4.912;2023-05-07T11:29:55;15.60;99.90
40123;DHT22;25832;45.490;4.912;2023-05-07T11:32:29;15.60;99.90
40123;DHT22;25832;45.490;4.912;2023-05-07T11:34:56;15.60;99.90
40123;DHT22;25832;45.490;4.912;2023-05-07T11:37:22;15.60;99.90
40123;DHT22;25832;45.490;4.912;2023-05-07T11:39:49;15.60;99.90
40123;DHT22;25832;45.490;4.912;2023-05-07T11:42:31;15.60;99.90
40123;DHT22;25832;45.490;4.912;2023-05-07T11:44:57;15.60;99.90
40123;DHT22;25832;45.490;4.912;2023-05-07T11:47:24;15.60;99.90
40123;DHT22;25832;45.490;4.912;2023-05-07T11:49:52;15.60;99.90
40123;DHT22;25832;45.490;4.912;2023-05-07T11:52:20;15.60;99.90
40123;DHT22;25832;45.490;4.912;2023-05-07T11:54:54;15.60;99.90
40123;DHT22;25832;45.490;4.912;2023-05-07T11:57:21;15.60;99.90
40123;DHT22;25832;45.490;4.912;2023-05-07T11:59:47;15.70;99.90
40123;DHT22;25832;45.490;4.912;2023-05-07T12:02:17;15.70;99.90
40123;DHT22;25832;45.490;4.912;2023-05-07T12:04:43;15.70;99.90
40123;DHT22;25832;45.490;4.912;2023-05-07T12:07:13;15.80;99.90
40123;DHT22;25832;45.490;4.912;2023-05-07T12:09:42;15.90;99.90
40123;DHT22;25832;45.490;4.912;2023-05-07T12:12:08;15.90;99.90
40123;DHT22;25832;45.490;4.912;2023-05-07T12:14:41;15.90;99.90
40123;DHT22;25832;45.490;4.912;2023-05-07T12:17:08;15.90;99.90
40123;DHT22;25832;45.490;4.912;2023-05-07T12:19:35;15.90;99.90
40123;DHT22;25832;45.490;4.912;2023-05-07T12:22:02;15.90;99.90
40123;DHT22;25832;45.490;4.912;2023-05-07T12:24:28;15.90;99.90
40123;DHT22;25832;45.490;4.912;2023-05-07T12:26:54;15.90;99.90
40123;DHT22;25832;45.490;4.912;2023-05-07T12:29:23;16.00;99.90
40123;DHT22;25832;45.490;4.912;2023-05-07T12:31:49;16.10;99.90
40123;DHT22;25832;45.490;4.912;2023-05-07T12:34:15;16.10;99.90
40123;DHT22;25832;45.490;4.912;2023-05-07T12:36:41;16.10;99.90
40123;DHT22;25832;45.490;4.912;2023-05-07T12:39:08;16.20;99.90
40123;DHT22;25832;45.490;4.912;2023-05-07T12:41:57;16.20;99.90
40123;DHT22;25832;45.490;4.912;2023-05-07T12:44:32;16.20;99.90
40123;DHT22;25832;45.490;4.912;2023-05-07T12:47:01;16.30;99.90
40123;DHT22;25832;45.490;4.912;2023-05-07T12:49:27;16.30;99.90
40123;DHT22;25832;45.490;4.912;2023-05-07T12:51:53;16.40;99.90
40123;DHT22;25832;45.490;4.912;2023-05-07T12:54:30;16.40;99.90
40123;DHT22;25832;45.490;4.912;2023-05-07T12:57:07;16.50;99.90
40123;DHT22;25832;45.490;4.912;2023-05-07T13:01:58;16.50;99.90
40123;DHT22;25832;45.490;4.912;2023-05-07T13:04:27;16.50;99.90
40123;DHT22;25832;45.490;4.912;2023-05-07T13:06:52;16.60;99.90
40123;DHT22;25832;45.490;4.912;2023-05-07T13:09:18;16.70;99.90
40123;DHT22;25832;45.490;4.912;2023-05-07T13:11:44;16.70;99.90
40123;DHT22;25832;45.490;4.912;2023-05-07T13:14:09;16.70;99.90
40123;DHT22;25832;45.490;4.912;2023-05-07T13:16:35;16.70;99.90
40123;DHT22;25832;45.490;4.912;2023-05-07T13:19:01;16.80;99.90
40123;DHT22;25832;45.490;4.912;2023-05-07T13:21:26;16.70;99.90
40123;DHT22;25832;45.490;4.912;2023-05-07T13:23:52;16.60;99.90
40123;DHT22;25832;45.490;4.912;2023-05-07T13:26:18;16.60;99.90
40123;DHT22;25832;45.490;4.912;2023-05-07T13:28:43;16.50;99.90
40123;DHT22;25832;45.490;4.912;2023-05-07T13:31:09;16.40;99.90
40123;DHT22;25832;45.490;4.912;2023-05-07T13:33:35;16.40;99.90
40123;DHT22;25832;45.490;4.912;2023-05-07T13:36:01;16.40;99.90
40123;DHT22;25832;45.490;4.912;2023-05-07T13:38:29;16.40;99.90
40123;DHT22;25832;45.490;4.912;2023-05-07T13:40:55;16.40;99.90
40123;DHT22;25832;45.490;4.912;2023-05-07T13:43:20;16.50;99.90
40123;DHT22;25832;45.490;4.912;2023-05-07T13:45:46;16.50;99.90
40123;DHT22;25832;45.490;4.912;2023-05-07T13:48:11;16.50;99.90
40123;DHT22;25832;45.490;4.912;2023-05-07T13:50:37;16.50;99.90
40123;DHT22;25832;45.490;4.912;2023-05-07T13:53:03;16.50;99.90
40123;DHT22;25832;45.490;4.912;2023-05-07T13:55:29;16.50;99.90
40123;DHT22;25832;45.490;4.912;2023-05-07T13:57:56;16.40;99.90
40123;DHT22;25832;45.490;4.912;2023-05-07T14:00:23;16.40;99.90
40123;DHT22;25832;45.490;4.912;2023-05-07T14:02:49;16.30;99.90
40123;DHT22;25832;45.490;4.912;2023-05-07T14:05:14;16.30;99.90
40123;DHT22;25832;45.490;4.912;2023-05-07T14:07:40;16.30;99.90
40123;DHT22;25832;45.490;4.912;2023-05-07T14:10:06;16.30;99.90
40123;DHT22;25832;45.490;4.912;2023-05-07T14:12:32;16.30;99.90
40123;DHT22;25832;45.490;4.912;2023-05-07T14:14:58;16.30;99.90
40123;DHT22;25832;45.490;4.912;2023-05-07T14:17:24;16.30;99.90
40123;DHT22;25832;45.490;4.912;2023-05-07T14:19:53;16.30;99.90
40123;DHT22;25832;45.490;4.912;2023-05-07T14:22:22;16.40;99.90
40123;DHT22;25832;45.490;4.912;2023-05-07T14:24:49;16.30;99.90
40123;DHT22;25832;45.490;4.912;2023-05-07T14:27:15;15.90;99.90
40123;DHT22;25832;45.490;4.912;2023-05-07T14:29:41;15.60;99.90
40123;DHT22;25832;45.490;4.912;2023-05-07T14:32:08;15.30;99.90
40123;DHT22;25832;45.490;4.912;2023-05-07T14:34:33;15.10;99.90
40123;DHT22;25832;45.490;4.912;2023-05-07T14:37:00;14.90;99.90
40123;DHT22;25832;45.490;4.912;2023-05-07T14:39:25;14.80;99.90
40123;DHT22;25832;45.490;4.912;2023-05-07T14:41:51;14.80;99.90
40123;DHT22;25832;45.490;4.912;2023-05-07T14:44:17;14.70;99.90
40123;DHT22;25832;45.490;4.912;2023-05-07T14:46:42;14.70;99.90
40123;DHT22;25832;45.490;4.912;2023-05-07T14:49:08;14.70;99.90
40123;DHT22;25832;45.490;4.912;2023-05-07T14:51:45;14.60;99.90
40123;DHT22;25832;45.490;4.912;2023-05-07T14:54:11;14.70;99.90
40123;DHT22;25832;45.490;4.912;2023-05-07T14:56:37;14.70;99.90
40123;DHT22;25832;45.490;4.912;2023-05-07T14:59:03;14.70;99.90
40123;DHT22;25832;45.490;4.912;2023-05-07T15:01:29;14.70;99.90
40123;DHT22;25832;45.490;4.912;2023-05-07T15:03:55;14.70;99.90
40123;DHT22;25832;45.490;4.912;2023-05-07T15:06:21;14.70;99.90
40123;DHT22;25832;45.490;4.912;2023-05-07T15:08:47;14.80;99.90
40123;DHT22;25832;45.490;4.912;2023-05-07T15:11:14;14.80;99.90
40123;DHT22;25832;45.490;4.912;2023-05-07T15:13:42;14.80;99.90
40123;DHT22;25832;45.490;4.912;2023-05-07T15:16:07;14.80;99.90
40123;DHT22;25832;45.490;4.912;2023-05-07T15:18:33;14.80;99.90
40123;DHT22;25832;45.490;4.912;2023-05-07T15:20:59;14.80;99.90
40123;DHT22;25832;45.490;4.912;2023-05-07T15:23:24;14.80;99.90
40123;DHT22;25832;45.490;4.912;2023-05-07T15:25:51;14.80;99.90
40123;DHT22;25832;45.490;4.912;2023-05-07T15:28:17;14.80;99.90
40123;DHT22;25832;45.490;4.912;2023-05-07T15:30:43;14.80;99.90
40123;DHT22;25832;45.490;4.912;2023-05-07T15:33:08;14.90;99.90
40123;DHT22;25832;45.490;4.912;2023-05-07T15:35:34;15.00;99.90
40123;DHT22;25832;45.490;4.912;2023-05-07T15:38:00;15.00;99.90
40123;DHT22;25832;45.490;4.912;2023-05-07T15:40:29;15.10;99.90
40123;DHT22;25832;45.490;4.912;2023-05-07T15:42:55;15.10;99.90